TimeAKST,TemperatureF,Dew PointF,Humidity,Sea Level PressureIn,VisibilityMPH,Wind Direction,Wind SpeedMPH,Gust SpeedMPH,PrecipitationIn,Events,Conditions,WindDirDegrees,DateUTC
12:53 AM,36.0,30.0,79,28.99,10.0,ENE,4.6,-,0.00,Rain,Light Rain,70,2013-02-22 09:53:00
1:53 AM,36.0,30.0,79,28.97,10.0,East,6.9,-,0.00,,Overcast,90,2013-02-22 10:53:00
3:53 AM,34.0,30.9,89,28.94,10.0,NNW,3.5,-,0.00,Snow,Light Snow,330,2013-02-22 12:53:00
4:53 AM,33.1,32.0,96,28.94,10.0,WNW,5.8,-,0.00,Snow,Light Snow,300,2013-02-22 13:53:00
5:53 AM,33.1,32.0,96,28.94,10.0,West,5.8,-,0.00,Snow,Light Snow,260,2013-02-22 14:53:00
6:53 AM,33.1,30.9,92,28.96,10.0,Calm,Calm,-,0.00,,Overcast,0,2013-02-22 15:53:00
7:53 AM,33.8,32.0,93,28.98,10.0,Calm,Calm,-,N/A,,Overcast,0,2013-02-22 16:53:00
8:53 AM,34.0,32.0,92,29.02,10.0,ENE,3.5,-,N/A,,Mostly Cloudy,60,2013-02-22 17:53:00
9:53 AM,35.1,33.1,92,29.05,10.0,Calm,Calm,-,0.00,,Mostly Cloudy,0,2013-02-22 18:53:00
10:53 AM,37.0,33.1,86,29.08,10.0,WSW,5.8,-,N/A,,Overcast,240,2013-02-22 19:53:00
11:14 AM,37.9,33.1,83,29.09,10.0,WSW,5.8,-,N/A,,Overcast,240,2013-02-22 20:14:00
11:53 AM,37.9,33.1,83,29.11,10.0,WSW,9.2,-,N/A,,Overcast,240,2013-02-22 20:53:00
12:53 PM,37.0,34.0,89,29.15,10.0,WSW,10.4,-,0.00,Rain,Light Rain,240,2013-02-22 21:53:00
1:28 PM,36.0,34.0,93,29.18,8.0,WSW,9.2,-,0.01,Rain,Light Rain,250,2013-02-22 22:28:00
1:53 PM,35.1,34.0,96,29.19,7.0,West,8.1,-,0.02,Rain-Snow,Light Rain,260,2013-02-22 22:53:00
2:27 PM,34.0,33.1,96,29.22,8.0,WSW,6.9,-,0.00,Rain-Snow,Light Rain,250,2013-02-22 23:27:00
2:53 PM,35.1,33.1,92,29.24,9.0,West,4.6,-,0.01,Rain,Light Rain,270,2013-02-22 23:53:00
3:53 PM,36.0,33.1,89,29.26,10.0,Calm,Calm,-,0.00,,Overcast,0,2013-02-23 00:53:00
4:53 PM,35.1,33.1,92,29.30,10.0,Calm,Calm,-,N/A,,Overcast,0,2013-02-23 01:53:00
5:53 PM,35.1,34.0,96,29.33,8.0,Calm,Calm,-,0.00,Rain,Light Rain,0,2013-02-23 02:53:00
6:53 PM,34.0,33.1,96,29.37,10.0,East,10.4,-,0.02,Rain,Light Rain,100,2013-02-23 03:53:00
7:53 PM,34.0,32.0,92,29.42,10.0,East,6.9,-,0.00,Rain,Light Rain,80,2013-02-23 04:53:00
8:53 PM,34.0,33.1,96,29.46,10.0,ENE,8.1,-,0.00,,Overcast,70,2013-02-23 05:53:00
9:53 PM,34.0,33.1,96,29.51,10.0,SE,6.9,-,0.00,Rain,Light Rain,140,2013-02-23 06:53:00
10:53 PM,34.0,33.1,96,29.55,10.0,East,4.6,-,0.00,Rain,Light Rain,100,2013-02-23 07:53:00
11:53 PM,34.0,32.0,92,29.59,10.0,ENE,4.6,-,0.00,,Overcast,60,2013-02-23 08:53:00